x

West Gulf - 207 Nm East Of Brownsville, Tx (42002) Wave Buoy

7:50am - Sat 30th Aug 2014 All times are CDT. -5 hours from GMT.

  • Sig Wave height 5.2ft
  • Swell Direction
  • Peak Period 7s
  • Average Period 5s
  • Wind
    18mph, 22mph gusts
  • Sea Temp 86°f
  • Air Temp 84°f
  • Sea Pressure 1012.5mb
  • West Gulf - 207 Nm East Of Brownsville, Tx
  • West Gulf - 207 Nm East Of Brownsville, Tx

More Historic Weather Station data

Upgrade to MSW Pro to gain access to the past 30 days of data for over 8000 Wavebouys and Weather Stations around the globe.

Join Pro

Comparision Forecast

View Surf forecast
   
Sat 08/30 7:50am 5ft 7s 5s 18 22 mph 1012.5mb 86f 84f
6:50am 5ft 7s 5s 20 25 mph 1011.9mb 86f 85f
5:50am 5ft 7s 5s 25 29 mph 1011.4mb 86f 85f
4:50am 4.5ft 7s 5s 20 25 mph 1011.4mb 86f 85f
3:50am 4ft 6s 5s 18 22 mph 1012mb 86f 84f
2:50am 4.5ft 7s 5s 18 22 mph 1011.8mb 86f 84f
1:50am 4.5ft 6s 5s 18 22 mph 1012mb 86f 84f
12:50am 4.5ft 7s 5s 16 20 mph 1012.3mb 86f 83f
Fri 08/29 11:50pm 4.5ft 7s 5s 18 22 mph 1012mb 86f 83f
10:50pm 3.5ft 6s 5s 16 20 mph 1012mb 85f 85f
9:50pm 3.5ft 6s 5s 11 13 mph 1012.3mb 85f 83f
8:50pm 4.5ft 6s 5s 13 16 mph 1011.6mb 85f 83f
7:50pm 4ft 6s 5s 18 22 mph 1010.2mb 85f 82f
6:50pm 3.5ft 6s 5s 18 20 mph 1009.9mb 85f 81f
5:50pm 3.5ft 6s 5s 11 13 mph 1010.3mb 85f 81f
4:50pm 3.5ft 6s 5s 7 9 mph 1009.2mb 85f 78f
3:50pm 3.5ft 6s 5s  -  2 mph 1010.6mb 85f 77f
2:50pm 3.5ft 5s 4s 18 25 mph 1012.8mb 85f 77f
1:50pm 3.5ft 5s 5s 20 22 mph 1011.2mb 85f 78f
12:50pm 4ft 5s 4s 13 18 mph 1011.7mb 85f 76f
11:50am 4.5ft 5s 5s 9 11 mph 1011.6mb 85f 75f
10:50am 4.5ft 6s 5s 9 11 mph 1011.4mb 84f 75f
9:50am 5.5ft 6s 5s 16 22 mph 1011mb 86f 76f
8:50am 4.5ft 7s 5s 31 38 mph 1008.3mb 86f 81f
7:50am 5ft 7s 5s 20 25 mph 1008.6mb 87f 83f
6:50am 5ft 7s 5s 13 16 mph 1008.9mb 87f 85f
5:50am 4.5ft 6s 5s 13 18 mph 1009.1mb 87f 84f
4:50am 4.5ft 6s 5s 18 22 mph 1008.4mb 87f 83f
3:50am 4.5ft 6s 5s 13 16 mph 1008.8mb 87f 83f
2:50am 4ft 4s 4s 16 20 mph 1009mb 87f 81f
1:50am 3.5ft 6s 5s 20 25 mph 1009.7mb 87f 83f
12:50am 3.5ft 7s 5s 13 16 mph 1010.5mb 87f 85f
Thu 08/28 11:50pm 3.5ft 5s 4s 16 20 mph 1011mb 87f 85f
10:50pm 3.5ft 6s 5s 18 22 mph 1010.6mb 87f 85f
9:50pm 3.5ft 6s 5s 16 18 mph 1010.6mb 87f 85f
8:50pm 3.5ft 5s 4s 13 18 mph 1010.5mb 87f 85f
7:50pm 3.5ft 7s 5s 16 18 mph 1010.4mb 87f 86f
6:50pm 3ft 6s 4s 13 16 mph 1010.5mb 87f 85f
5:50pm 3.5ft 5s 4s 13 16 mph 1010.4mb 87f 85f
4:50pm 3.5ft 5s 4s 18 20 mph 1010mb 87f 85f
3:50pm 3.5ft 5s 4s 13 16 mph 1010.5mb 87f 86f
2:50pm 3.5ft 5s 4s 18 20 mph 1010.4mb 87f 85f
1:50pm 3.5ft 5s 4s 16 18 mph 1011.2mb 87f 85f
12:50pm 2.5ft 5s 4s 11 13 mph 1011.6mb 87f 85f
11:50am 2.5ft 7s 4s 11 16 mph 1012.2mb 87f 86f
10:50am 3ft 7s 4s 13 16 mph 1012.1mb 87f 86f
9:50am 3.5ft 6s 4s 11 13 mph 1012.2mb 87f 86f
8:50am 3.5ft 7s 4s 13 16 mph 1011.8mb 87f 86f
7:50am 3.5ft 7s 4s 16 18 mph 1011.3mb 87f 86f
6:50am 3.5ft 7s 5s 16 18 mph 1011mb 87f 86f
5:50am 3.5ft 7s 5s 16 20 mph 1010.4mb 87f 85f
4:50am 3.5ft 8s 4s 16 18 mph 1010.5mb 87f 85f
3:50am 3.5ft 7s 5s 16 20 mph 1011.1mb 87f 85f
2:50am 3.5ft 7s 5s 16 18 mph 1011.5mb 87f 86f
1:50am 3.5ft 8s 5s 16 20 mph 1011.8mb 87f 86f
12:50am 3ft 8s 5s 13 18 mph 1012.1mb 87f 86f
Wed 08/27 11:50pm 3ft 8s 5s 16 18 mph 1012.2mb 87f 86f
10:50pm 3ft 8s 5s 13 16 mph 1012.5mb 87f 86f
9:50pm 3ft 7s 5s 13 16 mph 1012.5mb 87f 86f
8:50pm 3ft 8s 5s 13 16 mph 1012.3mb 87f 86f
7:50pm 2.5ft 8s 6s 11 13 mph 1011.6mb 88f 85f
6:50pm 3ft 8s 6s 7 9 mph 1011.3mb 88f 86f
5:50pm 2.5ft 8s 5s 4 7 mph 1011.2mb 88f 85f
4:50pm 3ft 8s 5s 7 9 mph 1011mb 88f 85f
3:50pm 3.5ft 8s 6s 7 9 mph 1011.3mb 88f 85f
2:50pm 3.5ft 8s 6s 9 11 mph 1011.8mb 88f 85f
1:50pm 3.5ft 8s 6s 9 11 mph 1012.2mb 87f 85f
12:50pm 3.5ft 8s 6s 9 11 mph 1012.6mb 87f 85f
11:50am 3.5ft 7s 6s 9 13 mph 1012.9mb 87f 85f
10:50am 3.5ft 8s 6s 11 13 mph 1012.7mb 87f 85f
9:50am 3.5ft 8s 6s 11 13 mph 1012.4mb 87f 85f
8:50am 4ft 8s 6s 11 13 mph 1012mb 87f 85f
7:50am 3.5ft 7s 6s 11 13 mph 1011.8mb 87f 84f
6:50am 3.5ft 8s 6s 11 13 mph 1011.3mb 87f 84f
5:50am 3.5ft 7s 6s 11 13 mph 1010.7mb 87f 84f
4:50am 3.5ft 8s 6s 9 11 mph 1010.5mb 87f 84f
3:50am 3.5ft 8s 6s 11 13 mph 1010.5mb 87f 84f
2:50am 3ft 7s 5s 11 16 mph 1010.9mb 87f 84f
1:50am 3ft 8s 5s 9 11 mph 1011.4mb 87f 84f
12:50am 3ft 7s 5s 7 9 mph 1011.5mb 87f 84f
Tue 08/26 11:50pm 3ft 5s 5s 2 4 mph 1011.6mb 87f 83f
10:50pm 3.5ft 6s 5s 2 4 mph 1011.8mb 87f 84f
9:50pm 3.5ft 6s 5s 9 11 mph 1011.4mb 87f 84f
8:50pm 3.5ft 5s 4s 9 11 mph 1011.3mb 87f 83f
7:50pm 3ft 5s 5s 11 13 mph 1011.2mb 87f 84f
6:50pm 3ft 5s 4s 13 16 mph 1011.1mb 87f 85f
5:50pm 3ft 6s 4s 11 13 mph 1011mb 87f 85f
4:50pm 2.5ft 5s 4s 16 18 mph 1011.3mb 87f 85f
3:50pm 2.5ft 6s 4s 16 18 mph 1011.8mb 87f 85f
2:50pm 2.5ft 6s 5s 16 18 mph 1012.4mb 87f 85f
1:50pm 2.5ft 6s 4s 13 16 mph 1013mb 87f 85f